Terminal Aerodrome Forecast
Issued by NWS

Home | Current Version | Previous Version | Text Only | Print | Product List | Glossary On
Versions: 1 2 3 4 5 6 7 8 9 10 11 12 13 14 15 16 17
000
FTUS41 KCAR 272343
TAFPQI
TAF
KPQI 272343Z 2800/2824 02015G25KT 1 1/2SM -SN BLSN OVC009
     FM280600 36013G22KT 2SM -SN BLSN OVC015
     FM281200 36012G20KT 4SM -SHSN BLSN OVC015
     FM281600 34010G18KT P6SM OVC020
     FM281800 33010G18KT P6SM OVC025
     FM281900 33009KT P6SM OVC035
     FM282300 31007KT P6SM BKN045
      AMD LTD TO CLD VIS AND WIND=

USA.gov is the U.S. government's official web portal to all federal, state and local government web resources and services.